Evans, Louisiana
Current Conditions -  °F | °C
As of 11:15 AM on Friday 31 Oct 2014 (Local Time) from KDRI Reporting Station
Clear Clear  
Wind Chill: 68°   Ceiling: Unl
Heat Index: 68°   Visibility: 10mi
Dew Point: 46°   Wind: 10mph
Humidity: 45%   Direction: 360°N
Pressure: 30.18"   Gusts: 20mph
Location:  30.99°N, 93.5°W
Report Text: KDRI 311615Z AUTO 36009G17KT 10SM CLR 20/08 A3018 RMK AO2 T01990077
Loading
Personal Weather Stations






























Interactive Weather Map
Tropical Storm Tracking
New forecast layout! Learn more

10-Day Weather Forecast

Advertisements
Track Severe Weather on mobile